»·PEaware :: SKY74 KOAR-KPAO

SKY74 :: KOAR-KPAO

FLIGHT INFORMATION

Flight Status: Arrived
Operator:
Sky High Charters
More flights by this operator :: More flights under this callsign
Pilot: Charles C. (26995)
Aircraft: MCDONNELL-DOUGLAS SKYTRAIN C-47
(DC3)
More flights by this aircraft type
Origin: KOAR Marina
United States
Destination: KPAO Palo Alto Of Santa Clara Co
United States
More flights between these airports :: More routes between these airports
Route: +SNS V25 SAPID
File this flight plan on PilotEdge
Remarks: NOTE REROUTE DUE TFR
Altitude:
(Current/Filed)
5,000ft
Speed:
(Current/Filed)
150kts
Departed: 24-Aug-20 10:44 AM
Arrived: 24-Aug-20 11:20 AM
Distance/Time
Traveled:
50nm/0:36
Distance/Time
To Go:
Arrived

Flight Plot

Page will automatically refresh every two minutes.

Flight plan parsing failed; only flown route is shown


Map Options




Map Legend


Flown Route
Filed Route
Departure Airport
Arrival Airport
Navaid (VOR, NDB)
Fix

Horizontal Profiles

Position Reports

Time Latitude Longitude Heading Altitude Ground
Speed
24-Aug-20 10:26 36.680291 -121.765432 355 142ft 0kts
24-Aug-20 10:27 36.680291 -121.765432 355 142ft 0kts
24-Aug-20 10:29 36.683190 -121.766240 347 139ft 15kts
24-Aug-20 10:29 36.682561 -121.766854 141 141ft 18kts
24-Aug-20 10:30 36.678668 -121.758685 27 136ft 0kts
24-Aug-20 10:31 36.678680 -121.758677 27 136ft 0kts
24-Aug-20 10:32 36.678680 -121.758677 27 136ft 0kts
24-Aug-20 10:33 36.678680 -121.758677 27 136ft 0kts
24-Aug-20 10:34 36.678680 -121.758677 27 136ft 0kts
24-Aug-20 10:35 36.678680 -121.758677 27 136ft 0kts
24-Aug-20 10:36 36.678680 -121.758677 27 136ft 0kts
24-Aug-20 10:37 36.678680 -121.758677 27 136ft 0kts
24-Aug-20 10:38 36.678680 -121.758677 27 136ft 0kts
24-Aug-20 10:39 36.678680 -121.758677 27 136ft 0kts
24-Aug-20 10:40 36.678680 -121.758677 27 136ft 0kts
24-Aug-20 10:41 36.678680 -121.758677 27 136ft 0kts
24-Aug-20 10:42 36.680088 -121.758869 302 133ft 0kts
24-Aug-20 10:43 36.690309 -121.780010 297 615ft 109kts
24-Aug-20 10:44 36.707465 -121.815432 320 1228ft 122kts
24-Aug-20 10:45 36.723032 -121.793447 102 1955ft 120kts
24-Aug-20 10:46 36.712899 -121.755070 110 2835ft 114kts
24-Aug-20 10:47 36.699736 -121.719726 113 3686ft 112kts
24-Aug-20 10:48 36.688624 -121.691907 113 4359ft 111kts
24-Aug-20 10:49 36.675385 -121.657593 110 5180ft 108kts
24-Aug-20 10:50 36.668508 -121.620637 79 5816ft 116kts
24-Aug-20 10:51 36.695114 -121.628846 303 5967ft 167kts
24-Aug-20 10:52 36.716631 -121.682096 311 5988ft 177kts
24-Aug-20 10:53 36.747313 -121.728192 312 5987ft 167kts
24-Aug-20 10:54 36.776729 -121.771906 312 5991ft 163kts
24-Aug-20 10:55 36.805972 -121.815419 312 5993ft 164kts
24-Aug-20 10:56 36.831912 -121.854062 312 5994ft 164kts
24-Aug-20 10:57 36.861381 -121.898020 312 5996ft 165kts
24-Aug-20 10:58 36.890774 -121.941929 312 5997ft 165kts
24-Aug-20 10:59 36.920121 -121.985820 312 5997ft 165kts
24-Aug-20 11:00 36.949520 -122.029852 312 5997ft 165kts
24-Aug-20 11:01 36.979490 -122.073318 332 5976ft 163kts
24-Aug-20 11:02 37.020440 -122.095281 340 5991ft 159kts
24-Aug-20 11:03 37.059397 -122.114803 341 5978ft 144kts
24-Aug-20 11:04 37.095906 -122.132997 340 5980ft 144kts
24-Aug-20 11:05 37.135026 -122.152514 339 5550ft 156kts
24-Aug-20 11:06 37.174534 -122.172260 339 5155ft 149kts
24-Aug-20 11:07 37.201707 -122.148316 64 4804ft 132kts
24-Aug-20 11:08 37.215724 -122.107978 66 4808ft 124kts
24-Aug-20 11:09 37.229063 -122.067796 66 4810ft 125kts
24-Aug-20 11:10 37.243991 -122.028354 33 4534ft 126kts
24-Aug-20 11:11 37.274691 -122.032543 348 4104ft 110kts
24-Aug-20 11:12 37.304922 -122.042816 347 3417ft 108kts
24-Aug-20 11:13 37.335313 -122.053145 347 2635ft 115kts
24-Aug-20 11:14 37.363897 -122.063033 347 2192ft 100kts
24-Aug-20 11:15 37.386355 -122.071331 341 2078ft 79kts
24-Aug-20 11:16 37.408333 -122.082682 339 1432ft 95kts
24-Aug-20 11:17 37.433421 -122.092129 343 782ft 90kts
24-Aug-20 11:18 37.453569 -122.107834 324 139ft 81kts
24-Aug-20 11:19 37.463073 -122.117805 124 11ft 10kts
24-Aug-20 11:20 37.459904 -122.114501 148 11ft 21kts
24-Aug-20 11:21 37.459353 -122.114513 102 11ft 0kts
24-Aug-20 11:22 37.459342 -122.114446 102 11ft 0kts
24-Aug-20 11:23 37.459342 -122.114446 102 11ft 0kts
24-Aug-20 11:24 37.459342 -122.114446 102 11ft 0kts
24-Aug-20 11:25 37.459342 -122.114446 102 11ft 0kts
24-Aug-20 11:26 37.459342 -122.114446 102 11ft 0kts
24-Aug-20 11:27 37.459342 -122.114446 102 11ft 0kts
24-Aug-20 11:28 37.459342 -122.114446 102 11ft 0kts

Navigation Log

Ident Type
Flight plan parsing failed, navigation log unavailable